Time;durP1;ratioP1;P1;durP2;ratioP2;P2;SDS_P1;SDS_P2;PMS_P1;PMS_P2;Temp;Humidity;BMP_temperature;BMP_pressure;BME280_temperature;BME280_humidity;BME280_pressure;Samples;Min_cycle;Max_cycle;Signal;HPM_P1;HPM_P2
2022/01/09 00:00:11;;;;;;;2.10;1.88;;;;;;;2.08;94.36;98950.34;2064122;28;26859;-72
2022/01/09 00:01:16;;;;;;;2.53;1.67;;;;;;;2.11;93.83;98950.28;2063826;28;46460;-72
2022/01/09 00:02:20;;;;;;;2.42;1.40;;;;;;;2.11;93.86;98950.28;2063480;28;44421;-72
2022/01/09 00:03:22;;;;;;;2.47;2.20;;;;;;;2.11;93.71;98952.94;2062544;28;44267;-73
2022/01/09 00:04:24;;;;;;;2.28;2.00;;;;;;;2.10;94.00;98952.06;2063715;28;46351;-72
2022/01/09 00:05:26;;;;;;;2.85;1.95;;;;;;;2.11;94.47;98947.66;2063723;28;43401;-72
2022/01/09 00:06:28;;;;;;;1.88;1.67;;;;;;;2.11;94.04;98947.66;2063778;28;44932;-72
2022/01/09 00:07:29;;;;;;;2.03;1.60;;;;;;;2.11;94.61;98952.94;2063369;28;44279;-72
2022/01/09 00:08:31;;;;;;;1.88;1.55;;;;;;;2.09;94.01;98942.41;2062761;28;43792;-73
2022/01/09 00:09:33;;;;;;;2.45;1.63;;;;;;;2.11;94.16;98945.03;2064080;28;43708;-73
2022/01/09 00:10:35;;;;;;;4.88;3.20;;;;;;;2.12;94.37;98948.53;2063644;28;45332;-73
2022/01/09 00:11:38;;;;;;;3.53;1.92;;;;;;;2.14;94.13;98942.31;2063432;28;46556;-73
2022/01/09 00:12:40;;;;;;;4.78;3.38;;;;;;;2.13;93.90;98950.28;2063721;28;44539;-72
2022/01/09 00:13:42;;;;;;;4.43;2.33;;;;;;;2.15;93.88;98944.03;2064127;28;30145;-73
2022/01/09 00:14:43;;;;;;;1.80;1.58;;;;;;;2.13;94.18;98940.56;2063216;28;44770;-73
2022/01/09 00:15:46;;;;;;;1.63;1.45;;;;;;;2.13;94.62;98939.72;2063355;28;45693;-72
2022/01/09 00:16:48;;;;;;;2.50;2.28;;;;;;;2.15;94.73;98928.19;2063225;28;44326;-73
2022/01/09 00:17:50;;;;;;;3.20;2.50;;;;;;;2.14;93.92;98929.13;2063685;28;46134;-73
2022/01/09 00:18:52;;;;;;;2.50;1.90;;;;;;;2.15;94.05;98933.47;2062838;28;44383;-72
2022/01/09 00:19:53;;;;;;;2.13;1.92;;;;;;;2.15;94.24;98938.75;2063577;28;29355;-72
2022/01/09 00:20:55;;;;;;;2.75;2.38;;;;;;;2.13;94.38;98924.72;2063526;28;43341;-72
2022/01/09 00:21:57;;;;;;;2.13;1.92;;;;;;;2.14;94.69;98936.19;2063516;28;44334;-72
2022/01/09 00:22:59;;;;;;;2.80;2.55;;;;;;;2.13;94.14;98935.28;2063097;28;44442;-72
2022/01/09 00:24:03;;;;;;;2.10;1.80;;;;;;;2.13;94.84;98930.00;2063190;28;45049;-72
2022/01/09 00:25:06;;;;;;;2.10;1.90;;;;;;;2.16;94.63;98926.47;2063427;28;45194;-72
2022/01/09 00:26:09;;;;;;;2.47;1.85;;;;;;;2.15;94.13;98929.97;2063218;28;43258;-72
2022/01/09 00:27:10;;;;;;;2.58;1.70;;;;;;;2.14;94.17;98926.47;2063060;28;44483;-73
2022/01/09 00:28:14;;;;;;;5.28;4.20;;;;;;;2.13;94.59;98930.00;2063674;28;20861;-73
2022/01/09 00:29:16;;;;;;;7.38;2.20;;;;;;;2.12;94.39;98924.75;2062478;28;41542;-72
2022/01/09 00:30:22;;;;;;;1.75;1.63;;;;;;;2.14;93.91;98923.84;2063177;28;45203;-73
2022/01/09 00:31:24;;;;;;;2.65;2.13;;;;;;;2.14;94.14;98918.56;2063495;28;44356;-73
2022/01/09 00:32:28;;;;;;;2.17;1.70;;;;;;;2.13;94.41;98922.09;2063294;28;45350;-73
2022/01/09 00:33:30;;;;;;;3.13;2.65;;;;;;;2.13;94.21;98922.09;2063404;28;43773;-73
2022/01/09 00:34:31;;;;;;;2.08;1.88;;;;;;;2.12;94.23;98922.13;2063142;28;44132;-73
2022/01/09 00:35:34;;;;;;;4.53;2.00;;;;;;;2.15;94.40;98932.63;2063341;28;46380;-73
2022/01/09 00:36:36;;;;;;;4.88;3.13;;;;;;;2.15;94.37;98908.88;2063457;28;44797;-72
2022/01/09 00:37:38;;;;;;;2.88;2.55;;;;;;;2.14;94.48;98917.69;2063620;28;44065;-73
2022/01/09 00:38:42;;;;;;;3.30;2.38;;;;;;;2.16;93.54;98905.34;2063939;28;29306;-73
2022/01/09 00:39:46;;;;;;;3.75;2.90;;;;;;;2.15;93.83;98912.38;2063807;28;43102;-73
2022/01/09 00:40:48;;;;;;;2.83;2.30;;;;;;;2.16;94.25;98908.84;2062727;28;44432;-73
2022/01/09 00:41:49;;;;;;;1.92;1.60;;;;;;;2.15;93.65;98901.81;2064162;28;29331;-73
2022/01/09 00:42:52;;;;;;;4.85;3.83;;;;;;;2.15;93.84;98907.09;2070447;28;45455;-73
2022/01/09 00:43:53;;;;;;;2.38;1.88;;;;;;;2.14;93.80;98902.72;2063148;28;46481;-72
2022/01/09 00:44:55;;;;;;;1.80;1.50;;;;;;;2.16;94.16;98900.91;2063454;28;43584;-74
2022/01/09 00:45:57;;;;;;;1.83;1.60;;;;;;;2.17;93.61;98904.41;2063644;28;44455;-72
2022/01/09 00:47:00;;;;;;;2.10;1.90;;;;;;;2.16;94.14;98893.00;2062844;28;45854;-73
2022/01/09 00:48:02;;;;;;;2.50;2.22;;;;;;;2.15;93.85;98899.16;2063440;28;43846;-73
2022/01/09 00:49:04;;;;;;;4.00;3.60;;;;;;;2.15;94.01;98893.88;2062826;28;44571;-73
2022/01/09 00:50:08;;;;;;;2.33;2.13;;;;;;;2.15;93.49;98899.16;2063642;28;44839;-72
2022/01/09 00:51:10;;;;;;;3.83;2.50;;;;;;;2.14;93.75;98894.81;2063574;28;44313;-72
2022/01/09 00:52:11;;;;;;;1.85;1.75;;;;;;;2.16;93.77;98892.13;2063248;28;43767;-73
2022/01/09 00:53:13;;;;;;;2.63;2.20;;;;;;;2.17;93.45;98894.75;2063274;28;44264;-73
2022/01/09 00:54:15;;;;;;;2.30;2.05;;;;;;;2.16;94.03;98898.28;2063331;28;46745;-73
2022/01/09 00:55:18;;;;;;;2.15;1.95;;;;;;;2.16;93.67;98893.00;2063934;28;22026;-73
2022/01/09 00:56:20;;;;;;;2.05;1.85;;;;;;;2.16;93.94;98897.41;2063965;28;44035;-72
2022/01/09 00:57:22;;;;;;;1.73;1.63;;;;;;;2.16;93.87;98889.50;2063084;28;44397;-73
2022/01/09 00:58:24;;;;;;;2.75;2.20;;;;;;;2.15;93.75;98896.53;2062654;28;44136;-73
2022/01/09 00:59:26;;;;;;;2.25;2.05;;;;;;;2.13;93.81;98892.19;2063574;28;45320;-73
2022/01/09 01:00:28;;;;;;;2.10;1.90;;;;;;;2.14;94.01;98897.44;2064299;28;26633;-72
2022/01/09 01:01:29;;;;;;;3.80;3.25;;;;;;;2.14;93.87;98899.22;2063118;28;44378;-73
2022/01/09 01:02:31;;;;;;;2.38;2.05;;;;;;;2.14;93.68;98901.88;2063887;28;44553;-73
2022/01/09 01:03:33;;;;;;;3.13;2.83;;;;;;;2.14;93.69;98896.59;2065348;28;30023;-73
2022/01/09 01:04:35;;;;;;;2.88;2.67;;;;;;;2.14;93.85;98894.81;2064224;28;45771;-61
2022/01/09 01:05:38;;;;;;;3.60;2.25;;;;;;;2.15;93.90;98891.25;2067425;28;44025;-73
2022/01/09 01:06:41;;;;;;;3.70;2.45;;;;;;;2.14;93.99;98889.53;2065805;28;20046;-72
2022/01/09 01:07:43;;;;;;;3.92;3.28;;;;;;;2.14;94.22;98893.94;2063734;28;45137;-73
2022/01/09 01:08:45;;;;;;;3.83;2.90;;;;;;;2.13;93.82;98893.06;2064569;28;36063;-73
2022/01/09 01:09:47;;;;;;;2.55;2.35;;;;;;;2.13;93.75;98892.19;2064743;28;44016;-73
2022/01/09 01:10:48;;;;;;;2.85;2.65;;;;;;;2.14;93.88;98899.22;2064304;28;44834;-73
2022/01/09 01:11:51;;;;;;;2.60;2.40;;;;;;;2.13;94.13;98890.41;2064802;28;44045;-73
2022/01/09 01:12:53;;;;;;;3.00;2.63;;;;;;;2.12;94.00;98886.06;2064081;28;44003;-73
2022/01/09 01:13:54;;;;;;;4.13;2.80;;;;;;;2.13;94.46;98898.34;2056626;28;43294;-73
2022/01/09 01:14:57;;;;;;;4.80;3.20;;;;;;;2.13;94.19;98898.34;2064123;28;41447;-73
2022/01/09 01:15:59;;;;;;;6.85;3.40;;;;;;;2.13;94.54;98893.06;2064148;28;45976;-73
2022/01/09 01:17:01;;;;;;;3.20;2.90;;;;;;;2.12;94.18;98893.09;2056348;28;45055;-73
2022/01/09 01:18:03;;;;;;;2.75;2.55;;;;;;;2.12;94.21;98891.34;2056741;28;35365;-72
2022/01/09 01:19:06;;;;;;;3.40;3.10;;;;;;;2.13;93.84;98887.78;2064106;28;43343;-73
2022/01/09 01:20:09;;;;;;;4.20;3.63;;;;;;;2.15;93.96;98890.38;2064781;28;45156;-73
2022/01/09 01:21:11;;;;;;;3.70;3.05;;;;;;;2.14;93.67;98886.03;2064692;28;44453;-73
2022/01/09 01:22:15;;;;;;;5.15;4.03;;;;;;;2.16;93.72;98884.22;2064385;28;44068;-73
2022/01/09 01:23:17;;;;;;;3.60;3.30;;;;;;;2.14;93.68;98881.59;2063728;28;44576;-73
2022/01/09 01:24:20;;;;;;;3.55;3.22;;;;;;;2.14;93.45;98884.25;2063748;28;44846;-73
2022/01/09 01:25:22;;;;;;;7.13;4.32;;;;;;;2.14;93.91;98892.16;2064396;28;45595;-73
2022/01/09 01:26:24;;;;;;;3.63;3.28;;;;;;;2.14;94.08;98888.66;2064596;28;47029;-73
2022/01/09 01:27:27;;;;;;;3.55;3.25;;;;;;;2.14;93.69;98888.66;2064635;28;43270;-73
2022/01/09 01:28:30;;;;;;;3.95;3.65;;;;;;;2.12;93.81;98888.69;2064232;28;45680;-73
2022/01/09 01:29:36;;;;;;;4.60;3.53;;;;;;;2.14;94.16;98888.66;2064570;28;44452;-72
2022/01/09 01:30:38;;;;;;;4.20;3.80;;;;;;;2.12;94.36;98887.81;2063735;28;44326;-72
2022/01/09 01:31:41;;;;;;;4.18;3.75;;;;;;;2.13;94.24;98882.50;2065121;28;20066;-73
2022/01/09 01:32:43;;;;;;;4.68;4.20;;;;;;;2.13;93.97;98893.06;2064563;28;44351;-74
2022/01/09 01:33:45;;;;;;;4.10;3.75;;;;;;;2.12;94.67;98893.09;2064000;28;45603;-73
2022/01/09 01:34:47;;;;;;;3.53;3.22;;;;;;;2.12;93.89;98891.34;2064049;28;44465;-73
2022/01/09 01:35:50;;;;;;;5.15;4.65;;;;;;;2.11;94.38;98889.59;2065233;28;30284;-73
2022/01/09 01:36:51;;;;;;;4.72;4.10;;;;;;;2.11;94.35;98886.94;2063650;28;45546;-73
2022/01/09 01:37:53;;;;;;;4.15;3.85;;;;;;;2.11;94.36;98889.59;2055521;28;44747;-73
2022/01/09 01:38:55;;;;;;;4.90;4.45;;;;;;;2.11;93.88;98894.88;2064488;28;27471;-74
2022/01/09 01:39:56;;;;;;;4.40;4.00;;;;;;;2.11;93.85;98892.22;2064838;28;44607;-73
2022/01/09 01:40:59;;;;;;;4.75;4.35;;;;;;;2.11;94.36;98894.88;2063943;28;45408;-73
2022/01/09 01:42:00;;;;;;;4.07;3.67;;;;;;;2.08;94.20;98890.53;2056198;28;45223;-73
2022/01/09 01:43:02;;;;;;;5.28;4.78;;;;;;;2.09;94.71;98888.75;2064190;28;44590;-73
2022/01/09 01:44:10;;;;;;;5.22;4.72;;;;;;;2.07;94.78;98887.91;2065984;28;20663;-74
2022/01/09 01:45:15;;;;;;;4.63;4.22;;;;;;;2.07;94.95;98886.13;2063762;28;46509;-72
2022/01/09 01:46:17;;;;;;;5.80;5.22;;;;;;;2.08;94.76;98887.00;2063938;28;44690;-72
2022/01/09 01:47:21;;;;;;;5.40;4.90;;;;;;;2.05;95.01;98887.09;2062904;28;44285;-73
2022/01/09 01:48:24;;;;;;;5.63;5.13;;;;;;;2.07;95.03;98893.19;2056985;28;29654;-72
2022/01/09 01:49:25;;;;;;;5.05;4.65;;;;;;;2.06;94.56;98891.44;2063691;28;32688;-72
2022/01/09 01:50:28;;;;;;;5.20;4.70;;;;;;;2.06;94.83;98897.63;2056455;28;46500;-73
2022/01/09 01:51:30;;;;;;;5.97;4.60;;;;;;;2.07;94.70;98888.78;2062830;28;44380;-72
2022/01/09 01:52:38;;;;;;;4.22;3.90;;;;;;;2.07;94.77;98890.56;2064616;28;34527;-73
2022/01/09 01:53:40;;;;;;;4.72;4.28;;;;;;;2.09;94.56;98894.03;2064373;28;44565;-72
2022/01/09 01:54:43;;;;;;;4.90;4.50;;;;;;;2.08;94.21;98894.91;2072183;28;22349;-71
2022/01/09 01:55:53;;;;;;;4.65;4.18;;;;;;;2.07;94.55;98888.78;2064057;28;46605;-73
2022/01/09 01:56:55;;;;;;;4.97;4.47;;;;;;;2.07;94.61;98888.78;2063877;28;43298;-73
2022/01/09 01:57:57;;;;;;;5.47;5.00;;;;;;;2.06;94.54;98892.34;2064554;28;20075;-72
2022/01/09 01:58:58;;;;;;;5.50;5.00;;;;;;;2.06;94.36;98889.69;2063596;28;46509;-72
2022/01/09 02:00:00;;;;;;;5.95;5.45;;;;;;;2.05;94.25;98890.59;2064530;28;45388;-72
2022/01/09 02:01:02;;;;;;;5.53;5.03;;;;;;;2.04;95.02;98885.34;2064385;28;47030;-72
2022/01/09 02:02:04;;;;;;;8.50;5.90;;;;;;;2.02;94.77;98885.38;2065264;28;20863;-74
2022/01/09 02:03:07;;;;;;;5.85;5.32;;;;;;;2.03;94.64;98878.34;2064111;28;35681;-74
2022/01/09 02:04:09;;;;;;;5.13;4.70;;;;;;;2.04;94.59;98885.34;2055524;28;43623;-73
2022/01/09 02:05:11;;;;;;;4.72;4.32;;;;;;;2.03;94.08;98883.63;2064287;28;29451;-73
2022/01/09 02:06:15;;;;;;;5.38;4.88;;;;;;;2.03;94.69;98886.25;2064289;28;46417;-73
2022/01/09 02:07:17;;;;;;;5.38;4.40;;;;;;;2.03;94.53;98883.63;2064926;28;43097;-73
2022/01/09 02:08:19;;;;;;;4.97;4.57;;;;;;;2.01;94.87;98875.72;2063564;28;45463;-73
2022/01/09 02:09:21;;;;;;;5.38;4.88;;;;;;;2.01;94.89;98875.72;2064415;28;31501;-73
2022/01/09 02:10:22;;;;;;;6.20;5.70;;;;;;;2.02;94.81;98881.88;2063440;28;43512;-72
2022/01/09 02:11:25;;;;;;;5.32;4.93;;;;;;;2.00;95.19;98881.03;2055664;28;45282;-73
2022/01/09 02:12:27;;;;;;;5.60;5.10;;;;;;;1.98;94.91;98873.16;2063947;28;28721;-73
2022/01/09 02:13:29;;;;;;;6.43;5.72;;;;;;;1.99;95.04;98881.94;2064146;28;45138;-72
2022/01/09 02:14:35;;;;;;;6.18;5.25;;;;;;;1.99;94.68;98881.94;2064530;28;44262;-73
2022/01/09 02:15:43;;;;;;;6.88;6.20;;;;;;;1.98;95.29;98885.47;2065350;28;43447;-73
2022/01/09 02:16:48;;;;;;;6.68;6.00;;;;;;;1.99;95.05;98889.84;2065015;28;45325;-72
2022/01/09 02:17:49;;;;;;;6.15;5.65;;;;;;;1.97;95.22;98887.22;2065095;28;44681;-72
2022/01/09 02:18:51;;;;;;;5.90;5.40;;;;;;;1.96;95.40;98885.50;2065580;28;25810;-72
2022/01/09 02:19:55;;;;;;;5.53;5.13;;;;;;;1.97;95.10;98881.94;2064775;28;46670;-73
2022/01/09 02:20:57;;;;;;;6.22;5.63;;;;;;;1.96;95.49;98882.00;2063787;28;44998;-71
2022/01/09 02:21:59;;;;;;;6.38;5.78;;;;;;;1.96;95.19;98880.22;2073551;28;44386;-72
2022/01/09 02:23:02;;;;;;;7.15;6.45;;;;;;;1.95;95.25;98883.75;2073001;28;46101;-72
2022/01/09 02:24:04;;;;;;;7.00;6.40;;;;;;;1.94;95.21;98881.16;2072905;28;45156;-73
2022/01/09 02:25:07;;;;;;;6.90;6.30;;;;;;;1.94;95.35;98892.59;2072902;28;46235;-72
2022/01/09 02:26:08;;;;;;;7.35;6.65;;;;;;;1.95;95.77;98883.75;2073725;28;20927;-72
2022/01/09 02:27:10;;;;;;;6.97;6.38;;;;;;;1.92;95.81;98878.56;2072986;28;43093;-73
2022/01/09 02:28:15;;;;;;;7.68;6.97;;;;;;;1.91;95.92;98884.75;2071777;28;44662;-72
2022/01/09 02:29:18;;;;;;;7.10;6.50;;;;;;;1.91;95.29;98892.66;2071457;28;43930;-72
2022/01/09 02:30:20;;;;;;;7.30;6.60;;;;;;;1.90;95.70;98890.91;2071827;28;45593;-73
2022/01/09 02:31:24;;;;;;;6.03;5.43;;;;;;;1.91;95.43;98888.22;2072651;28;24382;-72
2022/01/09 02:32:26;;;;;;;6.55;5.95;;;;;;;1.90;95.67;98897.06;2064255;28;42992;-72
2022/01/09 02:33:27;;;;;;;7.13;6.43;;;;;;;1.90;95.60;98886.50;2071853;28;46581;-73
2022/01/09 02:34:29;;;;;;;6.30;5.72;;;;;;;1.88;95.60;98883.03;2071470;28;43070;-73
2022/01/09 02:35:32;;;;;;;7.00;6.40;;;;;;;1.89;95.24;98883.91;2064024;28;45476;-73
2022/01/09 02:36:36;;;;;;;7.15;6.55;;;;;;;1.88;95.09;98888.31;2064245;28;26331;-72
2022/01/09 02:37:38;;;;;;;7.15;6.45;;;;;;;1.86;95.40;98884.81;2071900;28;44234;-73
2022/01/09 02:38:39;;;;;;;6.55;6.05;;;;;;;1.87;95.63;98886.56;2072280;28;46514;-73
2022/01/09 02:39:43;;;;;;;7.32;6.70;;;;;;;1.86;95.53;98887.47;2072621;28;27517;-73
2022/01/09 02:40:52;;;;;;;7.18;6.57;;;;;;;1.86;95.42;98890.09;2073839;28;20038;-72
2022/01/09 02:41:54;;;;;;;6.65;6.13;;;;;;;1.85;95.79;98885.75;2071536;28;46134;-72
2022/01/09 02:42:56;;;;;;;6.97;6.38;;;;;;;1.84;95.82;98886.63;2072272;28;45259;-73
2022/01/09 02:44:06;;;;;;;7.32;6.72;;;;;;;1.85;95.20;98888.38;2073075;28;20128;-73
2022/01/09 02:45:08;;;;;;;6.88;6.28;;;;;;;1.83;95.20;98892.81;2071821;28;29407;-72
2022/01/09 02:46:33;;;;;;;8.25;7.45;;;;;;;1.80;95.43;98886.75;2071889;28;44071;-72
2022/01/09 02:47:38;;;;;;;8.07;7.38;;;;;;;1.81;95.91;98886.72;2071490;28;44846;-72
2022/01/09 02:48:40;;;;;;;8.70;7.90;;;;;;;1.80;95.97;98884.09;2072628;28;24516;-72
2022/01/09 02:49:47;;;;;;;8.65;7.85;;;;;;;1.79;96.03;98892.91;2072263;28;44228;-72
2022/01/09 02:51:01;;;;;;;8.75;7.95;;;;;;;1.79;95.66;98883.22;2071770;28;36543;-72
2022/01/09 02:52:11;;;;;;;8.90;8.00;;;;;;;1.80;95.92;98892.88;2065410;28;45224;-72
2022/01/09 02:53:16;;;;;;;;;;;;;;;1.78;95.39;98891.19;2064451;28;45308;-72
2022/01/09 02:55:38;;;;;;;7.45;6.82;;;;;;;1.76;95.76;98885.03;2064105;28;44567;-73
2022/01/09 02:56:40;;;;;;;7.63;7.03;;;;;;;1.76;95.91;98892.94;2063861;28;45862;-73
2022/01/09 02:57:46;;;;;;;7.78;7.03;;;;;;;1.76;96.10;98888.56;2064106;28;43329;-72
2022/01/09 02:58:47;;;;;;;8.43;7.72;;;;;;;1.76;95.70;98892.94;2071491;28;44425;-72
2022/01/09 02:59:49;;;;;;;9.90;9.00;;;;;;;1.75;95.97;98893.88;2070698;28;43282;-73
2022/01/09 03:00:51;;;;;;;8.13;7.32;;;;;;;1.74;96.20;98892.13;2063975;28;45534;-73
2022/01/09 03:01:52;;;;;;;8.25;7.55;;;;;;;1.74;96.09;98890.34;2064795;28;28817;-73
2022/01/09 03:02:55;;;;;;;8.15;7.45;;;;;;;1.70;96.04;98892.16;2063011;28;45729;-73
2022/01/09 03:03:57;;;;;;;9.73;8.82;;;;;;;1.70;95.61;98894.81;2047733;28;30284;-73
2022/01/09 03:04:59;;;;;;;8.38;7.63;;;;;;;1.71;95.91;98893.06;2055578;28;43597;-73
2022/01/09 03:06:01;;;;;;;8.85;8.10;;;;;;;1.70;95.80;98893.94;2064164;28;45356;-72
2022/01/09 03:07:03;;;;;;;8.65;7.90;;;;;;;1.68;95.86;98890.47;2064565;28;21968;-73
2022/01/09 03:08:05;;;;;;;8.65;7.85;;;;;;;1.69;95.85;98890.44;2064015;28;35099;-72
2022/01/09 03:09:07;;;;;;;9.15;8.32;;;;;;;1.69;96.38;98893.09;2063925;28;45114;-72
2022/01/09 03:10:11;;;;;;;8.55;7.75;;;;;;;1.69;96.27;98897.50;2064423;28;28423;-73
2022/01/09 03:11:13;;;;;;;9.23;8.38;;;;;;;1.69;96.18;98886.97;2064120;28;45681;-73
2022/01/09 03:12:15;;;;;;;9.48;8.57;;;;;;;1.69;96.39;98897.50;2064130;28;44757;-73
2022/01/09 03:13:17;;;;;;;9.32;8.43;;;;;;;1.68;96.18;98896.63;2063722;28;43847;-72
2022/01/09 03:14:18;;;;;;;9.75;8.80;;;;;;;1.68;96.53;98898.41;2071140;28;46381;-73
2022/01/09 03:15:20;;;;;;;8.93;8.13;;;;;;;1.67;96.79;98900.16;2071936;28;43358;-73
2022/01/09 03:16:22;;;;;;;10.10;9.20;;;;;;;1.67;96.55;98894.00;2064591;28;27582;-73
2022/01/09 03:17:24;;;;;;;9.50;8.60;;;;;;;1.67;96.06;98899.28;2063707;28;46499;-73
2022/01/09 03:18:28;;;;;;;9.95;9.00;;;;;;;1.66;96.42;98895.78;2063941;28;44843;-72
2022/01/09 03:19:29;;;;;;;10.30;9.40;;;;;;;1.67;96.86;98894.00;2063654;28;44322;-73
2022/01/09 03:20:31;;;;;;;10.30;9.30;;;;;;;1.68;96.99;98901.03;2071396;28;44821;-72
2022/01/09 03:21:36;;;;;;;9.55;8.65;;;;;;;1.66;96.72;98900.19;2070854;28;45275;-72
2022/01/09 03:22:39;;;;;;;9.85;8.95;;;;;;;1.67;96.28;98901.91;2063611;28;41437;-73
2022/01/09 03:23:40;;;;;;;10.23;9.23;;;;;;;1.67;96.46;98894.91;2063523;28;42634;-72
2022/01/09 03:24:42;;;;;;;10.77;9.75;;;;;;;1.66;96.48;98898.41;2062176;28;45549;-73
2022/01/09 03:25:45;;;;;;;10.63;9.63;;;;;;;1.67;96.44;98904.56;2064920;28;20050;-72
2022/01/09 03:26:46;;;;;;;10.75;9.75;;;;;;;1.67;96.35;98899.28;2063086;28;43835;-73
2022/01/09 03:27:49;;;;;;;10.23;9.23;;;;;;;1.67;96.12;98905.44;2063424;28;45156;-73
2022/01/09 03:28:51;;;;;;;10.48;9.45;;;;;;;1.67;96.33;98905.44;2064109;28;38824;-73
2022/01/09 03:29:53;;;;;;;10.00;9.10;;;;;;;1.66;96.64;98893.16;2064607;28;30151;-73
2022/01/09 03:30:55;;;;;;;10.38;9.45;;;;;;;1.68;96.97;98908.94;2063595;28;45994;-73
2022/01/09 03:31:56;;;;;;;10.95;9.95;;;;;;;1.68;96.62;98901.88;2063937;28;45209;-73
2022/01/09 03:32:58;;;;;;;11.00;10.00;;;;;;;1.68;97.04;98903.66;2063013;28;46176;-73
2022/01/09 03:34:00;;;;;;;10.68;9.57;;;;;;;1.69;96.74;98903.66;2055300;28;44926;-72
2022/01/09 03:35:11;;;;;;;10.43;9.48;;;;;;;1.68;97.19;98895.75;2064501;28;25448;-72
2022/01/09 03:36:13;;;;;;;10.38;9.43;;;;;;;1.68;96.60;98901.03;2063299;28;44835;-72
2022/01/09 03:37:14;;;;;;;10.95;9.95;;;;;;;1.68;97.05;98906.31;2063296;28;44263;-71
2022/01/09 03:38:19;;;;;;;10.32;9.32;;;;;;;1.68;96.54;98901.03;2064223;28;45490;-72
2022/01/09 03:39:21;;;;;;;10.88;9.88;;;;;;;1.69;96.91;98902.78;2064417;28;45961;-72
2022/01/09 03:40:26;;;;;;;10.50;9.50;;;;;;;1.67;96.98;98905.44;2063573;28;27357;-72
2022/01/09 03:41:28;;;;;;;10.80;9.80;;;;;;;1.67;96.81;98904.56;2062958;28;46555;-72
2022/01/09 03:42:29;;;;;;;10.32;9.32;;;;;;;1.68;96.51;98895.75;2063398;28;43481;-72
2022/01/09 03:43:31;;;;;;;10.70;9.70;;;;;;;1.67;96.53;98904.56;2063214;28;44385;-70
2022/01/09 03:44:34;;;;;;;10.18;9.20;;;;;;;1.65;96.62;98894.06;2062542;28;44430;-72
2022/01/09 03:45:36;;;;;;;10.77;9.77;;;;;;;1.66;96.70;98897.56;2064324;28;36554;-72
2022/01/09 03:46:38;;;;;;;10.48;9.48;;;;;;;1.65;96.24;98898.44;2063768;28;46559;-72
2022/01/09 03:47:40;;;;;;;9.93;9.00;;;;;;;1.65;96.89;98901.09;2063875;28;43392;-73
2022/01/09 03:48:41;;;;;;;9.90;9.00;;;;;;;1.66;96.67;98903.69;2063627;28;45916;-72
2022/01/09 03:49:43;;;;;;;9.57;8.68;;;;;;;1.65;96.90;98895.81;2063735;28;46381;-72
2022/01/09 03:50:50;;;;;;;10.68;9.70;;;;;;;1.64;96.63;98900.22;2063906;28;45430;-73
2022/01/09 03:51:54;;;;;;;10.23;9.30;;;;;;;1.65;96.51;98898.44;2063672;28;30392;-72
2022/01/09 03:52:56;;;;;;;9.98;8.98;;;;;;;1.63;96.34;98894.97;2063300;28;44415;-72
2022/01/09 03:53:58;;;;;;;10.60;9.70;;;;;;;1.64;96.82;98896.72;2063607;28;45611;-73
2022/01/09 03:55:00;;;;;;;10.02;9.13;;;;;;;1.63;96.84;98897.59;2062703;28;44376;-72
2022/01/09 03:56:02;;;;;;;10.80;9.80;;;;;;;1.62;97.00;98904.66;2063229;28;43798;-72
2022/01/09 03:57:04;;;;;;;10.02;9.07;;;;;;;1.63;97.06;98900.25;2063277;28;46359;-72
2022/01/09 03:58:06;;;;;;;10.07;9.18;;;;;;;1.60;96.72;98895.91;2063550;28;44669;-72
2022/01/09 03:59:08;;;;;;;9.65;8.65;;;;;;;1.62;96.39;98901.16;2063597;28;45959;-73
2022/01/09 04:00:18;;;;;;;10.43;9.45;;;;;;;1.61;97.05;98915.25;2064009;28;27673;-73
2022/01/09 04:01:20;;;;;;;10.05;9.15;;;;;;;1.61;96.80;98904.69;2063411;28;43238;-73
2022/01/09 04:02:22;;;;;;;10.95;9.95;;;;;;;1.60;96.97;98913.50;2063049;28;44489;-73
2022/01/09 04:03:23;;;;;;;9.40;8.50;;;;;;;1.61;97.35;98909.97;2063399;28;46119;-74
2022/01/09 04:04:25;;;;;;;10.70;9.70;;;;;;;1.60;96.76;98914.38;2071057;28;44028;-73
2022/01/09 04:05:27;;;;;;;10.43;9.43;;;;;;;1.60;96.70;98914.38;2064087;28;32045;-73
2022/01/09 04:06:32;;;;;;;10.18;9.23;;;;;;;1.60;96.53;98913.50;2063237;28;42162;-72
2022/01/09 04:07:34;;;;;;;11.55;10.45;;;;;;;1.60;96.79;98913.50;2063975;28;45790;-72
2022/01/09 04:08:35;;;;;;;11.80;10.18;;;;;;;1.62;96.82;98914.34;2061606;28;46057;-72
2022/01/09 04:09:39;;;;;;;11.68;10.57;;;;;;;1.61;97.07;98923.16;2063032;28;43821;-72
2022/01/09 04:10:42;;;;;;;10.13;9.13;;;;;;;1.60;96.70;98931.94;2063601;28;46567;-72
2022/01/09 04:11:47;;;;;;;10.70;9.70;;;;;;;1.58;97.03;98920.56;2062538;28;44542;-72
2022/01/09 04:12:52;;;;;;;10.57;9.63;;;;;;;1.58;96.64;98926.72;2063068;28;45635;-72
2022/01/09 04:13:54;;;;;;;11.15;10.05;;;;;;;1.59;96.76;98919.69;2070035;28;44739;-72
2022/01/09 04:14:56;;;;;;;10.82;9.82;;;;;;;1.59;96.88;98924.94;2063183;28;43848;-72
2022/01/09 04:15:59;;;;;;;11.38;10.27;;;;;;;1.57;96.83;98929.41;2070922;28;46347;-71
2022/01/09 04:17:01;;;;;;;10.93;9.93;;;;;;;1.58;96.94;98934.66;2070923;28;43594;-71
2022/01/09 04:18:03;;;;;;;11.57;10.48;;;;;;;1.58;96.73;98931.13;2063554;28;44079;-71
2022/01/09 04:19:05;;;;;;;10.98;9.98;;;;;;;1.53;96.48;98928.59;2063616;28;45840;-72
2022/01/09 04:20:08;;;;;;;10.88;9.88;;;;;;;1.53;96.70;98924.16;2063760;28;43942;-71
2022/01/09 04:21:10;;;;;;;11.10;10.00;;;;;;;1.54;96.75;98925.03;2062790;28;45139;-71
2022/01/09 04:22:12;;;;;;;10.38;9.38;;;;;;;1.53;96.99;98924.16;2063105;28;44321;-72
2022/01/09 04:23:15;;;;;;;10.52;9.52;;;;;;;1.51;96.90;98925.09;2062849;28;45255;-72
2022/01/09 04:24:17;;;;;;;10.85;9.85;;;;;;;1.50;96.91;98929.50;2063653;28;43174;-72
2022/01/09 04:25:19;;;;;;;10.02;9.07;;;;;;;1.48;96.75;98931.28;2063552;28;42186;-72
2022/01/09 04:26:21;;;;;;;9.75;8.85;;;;;;;1.48;96.78;98936.56;2070494;28;45577;-72
2022/01/09 04:27:24;;;;;;;9.88;8.98;;;;;;;1.47;96.88;98933.94;2070843;28;44591;-72
2022/01/09 04:28:25;;;;;;;10.02;9.07;;;;;;;1.45;96.89;98933.13;2070675;28;26289;-71
2022/01/09 04:29:27;;;;;;;9.38;8.50;;;;;;;1.44;96.58;98932.25;2071606;28;29171;-72
2022/01/09 04:30:29;;;;;;;9.80;8.88;;;;;;;1.41;96.49;98932.31;2070449;28;43489;-72
2022/01/09 04:31:31;;;;;;;9.10;8.20;;;;;;;1.39;97.07;98934.09;2063652;28;45415;-71
2022/01/09 04:32:33;;;;;;;9.23;8.43;;;;;;;1.36;96.49;98930.66;2064293;28;32735;-72
2022/01/09 04:33:35;;;;;;;9.48;8.57;;;;;;;1.37;97.00;98937.69;2063557;28;44349;-71
2022/01/09 04:34:37;;;;;;;9.90;8.90;;;;;;;1.37;96.78;98943.81;2070510;28;46683;-72
2022/01/09 04:35:41;;;;;;;9.23;8.43;;;;;;;1.38;97.37;98956.06;2070521;28;27648;-73
2022/01/09 04:36:42;;;;;;;9.75;8.85;;;;;;;1.35;97.26;98942.97;2062293;28;43110;-72
2022/01/09 04:37:44;;;;;;;10.30;9.30;;;;;;;1.36;96.80;98944.69;2062991;28;42694;-72
2022/01/09 04:38:46;;;;;;;9.73;8.75;;;;;;;1.34;97.40;98939.44;2063381;28;45507;-72
2022/01/09 04:39:50;;;;;;;9.02;8.15;;;;;;;1.33;96.97;98940.38;2063138;28;44944;-72
2022/01/09 04:40:51;;;;;;;9.00;8.10;;;;;;;1.31;96.71;98946.53;2062585;28;43538;-72
2022/01/09 04:41:53;;;;;;;8.25;7.50;;;;;;;1.31;96.78;98944.78;2063207;28;44184;-72
2022/01/09 04:42:59;;;;;;;8.45;7.65;;;;;;;1.28;96.55;98950.13;2064264;28;20249;-73
2022/01/09 04:44:01;;;;;;;8.13;7.43;;;;;;;1.28;96.62;98949.25;2064079;28;45729;-72
2022/01/09 04:45:03;;;;;;;7.80;7.10;;;;;;;1.26;97.21;98946.63;2063561;28;43265;-72
2022/01/09 04:46:05;;;;;;;8.35;7.57;;;;;;;1.26;96.49;98943.13;2063625;28;46453;-73
2022/01/09 04:47:12;;;;;;;7.57;6.88;;;;;;;1.25;96.43;98950.16;2063465;28;46005;-73
2022/01/09 04:48:15;;;;;;;8.10;7.40;;;;;;;1.26;96.69;98940.50;2062986;28;46838;-73
2022/01/09 04:49:22;;;;;;;7.93;7.22;;;;;;;1.25;97.22;98944.03;2064070;28;30222;-74
2022/01/09 04:50:26;;;;;;;7.68;6.88;;;;;;;1.24;96.86;98943.16;2062940;28;44457;-74
2022/01/09 04:51:27;;;;;;;7.72;7.03;;;;;;;1.22;96.57;98944.97;2062893;28;44773;-73
2022/01/09 04:52:33;;;;;;;7.85;7.15;;;;;;;1.25;96.47;98949.28;2063329;28;34848;-73
2022/01/09 04:53:35;;;;;;;7.53;6.82;;;;;;;1.23;96.97;98946.69;2062388;28;45131;-73
2022/01/09 04:54:36;;;;;;;7.80;7.10;;;;;;;1.23;97.15;98951.09;2063216;28;44718;-73
2022/01/09 04:55:50;;;;;;;8.30;7.57;;;;;;;1.23;97.29;98948.47;2063038;28;43442;-73
2022/01/09 04:56:52;;;;;;;8.48;7.72;;;;;;;1.23;96.80;98957.22;2062855;28;31096;-73
2022/01/09 04:57:54;;;;;;;7.97;7.28;;;;;;;1.21;96.75;98953.75;2063346;28;45348;-73
2022/01/09 04:58:58;;;;;;;7.57;6.88;;;;;;;1.20;96.93;98957.28;2063226;28;44334;-73